sensor_id;sensor_type;location;lat;lon;timestamp;pressure;altitude;pressure_sealevel;temperature;humidity
55418;BME280;41287;47.554;7.844;2022-07-23T00:01:15;98007.00;;;24.72;52.52
55418;BME280;41287;47.554;7.844;2022-07-23T00:03:41;97990.56;;;24.72;52.56
55418;BME280;41287;47.554;7.844;2022-07-23T00:06:06;97985.06;;;24.72;52.38
55418;BME280;41287;47.554;7.844;2022-07-23T00:08:32;97980.38;;;24.73;52.52
55418;BME280;41287;47.554;7.844;2022-07-23T00:10:57;97985.88;;;24.73;52.59
55418;BME280;41287;47.554;7.844;2022-07-23T00:13:22;97981.53;;;24.72;52.59
55418;BME280;41287;47.554;7.844;2022-07-23T00:15:48;97990.56;;;24.72;52.59
55418;BME280;41287;47.554;7.844;2022-07-23T00:18:13;97996.81;;;24.73;52.38
55418;BME280;41287;47.554;7.844;2022-07-23T00:20:39;98002.69;;;24.71;52.59
55418;BME280;41287;47.554;7.844;2022-07-23T00:23:04;98014.06;;;24.73;52.61
55418;BME280;41287;47.554;7.844;2022-07-23T00:25:29;98011.31;;;24.73;52.70
55418;BME280;41287;47.554;7.844;2022-07-23T00:27:55;98004.25;;;24.72;52.57
55418;BME280;41287;47.554;7.844;2022-07-23T00:30:21;98001.53;;;24.72;52.65
55418;BME280;41287;47.554;7.844;2022-07-23T00:32:53;97998.00;;;24.72;52.37
55418;BME280;41287;47.554;7.844;2022-07-23T00:35:20;98001.53;;;24.72;52.42
55418;BME280;41287;47.554;7.844;2022-07-23T00:37:45;98005.06;;;24.73;52.49
55418;BME280;41287;47.554;7.844;2022-07-23T00:40:11;98009.75;;;24.72;52.63
55418;BME280;41287;47.554;7.844;2022-07-23T00:42:38;98002.31;;;24.73;52.75
55418;BME280;41287;47.554;7.844;2022-07-23T00:45:04;97998.78;;;24.72;52.52
55418;BME280;41287;47.554;7.844;2022-07-23T00:47:30;97993.28;;;24.72;52.59
55418;BME280;41287;47.554;7.844;2022-07-23T00:49:56;97992.50;;;24.72;52.75
55418;BME280;41287;47.554;7.844;2022-07-23T00:52:21;97985.88;;;24.73;52.56
55418;BME280;41287;47.554;7.844;2022-07-23T00:54:47;97983.91;;;24.73;52.58
55418;BME280;41287;47.554;7.844;2022-07-23T00:57:13;97987.03;;;24.72;52.59
55418;BME280;41287;47.554;7.844;2022-07-23T00:59:39;97982.34;;;24.72;52.73
55418;BME280;41287;47.554;7.844;2022-07-23T01:02:05;97976.06;;;24.72;52.58
55418;BME280;41287;47.554;7.844;2022-07-23T01:04:30;97978.00;;;24.71;52.58
55418;BME280;41287;47.554;7.844;2022-07-23T01:06:55;97972.53;;;24.71;52.57
55418;BME280;41287;47.554;7.844;2022-07-23T01:09:21;97984.28;;;24.72;52.65
55418;BME280;41287;47.554;7.844;2022-07-23T01:11:46;97993.28;;;24.72;52.72
55418;BME280;41287;47.554;7.844;2022-07-23T01:14:17;98008.94;;;24.72;52.71
55418;BME280;41287;47.554;7.844;2022-07-23T01:16:43;98010.53;;;24.73;52.74
55418;BME280;41287;47.554;7.844;2022-07-23T01:19:09;97970.59;;;24.72;52.72
55418;BME280;41287;47.554;7.844;2022-07-23T01:21:53;97909.91;;;24.70;52.75
55418;BME280;41287;47.554;7.844;2022-07-23T01:24:21;97902.09;;;24.72;52.63
55418;BME280;41287;47.554;7.844;2022-07-23T01:26:48;97915.78;;;24.72;52.67
55418;BME280;41287;47.554;7.844;2022-07-23T01:29:13;97918.53;;;24.72;52.73
55418;BME280;41287;47.554;7.844;2022-07-23T01:31:39;97930.28;;;24.72;52.66
55418;BME280;41287;47.554;7.844;2022-07-23T01:34:05;97935.75;;;24.72;52.71
55418;BME280;41287;47.554;7.844;2022-07-23T01:36:34;97944.75;;;24.73;52.86
55418;BME280;41287;47.554;7.844;2022-07-23T01:39:00;97951.41;;;24.72;52.71
55418;BME280;41287;47.554;7.844;2022-07-23T01:41:26;97943.19;;;24.72;52.62
55418;BME280;41287;47.554;7.844;2022-07-23T01:43:51;97957.69;;;24.72;52.61
55418;BME280;41287;47.554;7.844;2022-07-23T01:46:16;97974.13;;;24.72;52.66
55418;BME280;41287;47.554;7.844;2022-07-23T01:48:43;97984.28;;;24.72;52.79
55418;BME280;41287;47.554;7.844;2022-07-23T01:51:10;97987.81;;;24.72;52.89
55418;BME280;41287;47.554;7.844;2022-07-23T01:53:36;97984.28;;;24.72;52.69
55418;BME280;41287;47.554;7.844;2022-07-23T01:56:01;97988.59;;;24.73;52.81
55418;BME280;41287;47.554;7.844;2022-07-23T01:58:28;98000.72;;;24.72;52.82
55418;BME280;41287;47.554;7.844;2022-07-23T02:00:54;98013.28;;;24.73;52.68
55418;BME280;41287;47.554;7.844;2022-07-23T02:03:20;98009.75;;;24.72;52.84
55418;BME280;41287;47.554;7.844;2022-07-23T02:05:46;97994.09;;;24.73;52.81
55418;BME280;41287;47.554;7.844;2022-07-23T02:08:11;97978.81;;;24.72;52.64
55418;BME280;41287;47.554;7.844;2022-07-23T02:10:37;97980.38;;;24.73;52.65
55418;BME280;41287;47.554;7.844;2022-07-23T02:13:03;97970.59;;;24.72;52.76
55418;BME280;41287;47.554;7.844;2022-07-23T02:15:28;97954.94;;;24.72;52.76
55418;BME280;41287;47.554;7.844;2022-07-23T02:17:54;97962.38;;;24.72;52.76
55418;BME280;41287;47.554;7.844;2022-07-23T02:20:19;97958.84;;;24.71;52.80
55418;BME280;41287;47.554;7.844;2022-07-23T02:22:45;97956.09;;;24.71;52.83
55418;BME280;41287;47.554;7.844;2022-07-23T02:25:10;97956.09;;;24.71;53.04
55418;BME280;41287;47.554;7.844;2022-07-23T02:27:36;97954.16;;;24.72;52.85
55418;BME280;41287;47.554;7.844;2022-07-23T02:30:02;97965.09;;;24.72;52.77
55418;BME280;41287;47.554;7.844;2022-07-23T02:32:28;97976.06;;;24.72;52.82
55418;BME280;41287;47.554;7.844;2022-07-23T02:34:55;97974.13;;;24.72;52.62
55418;BME280;41287;47.554;7.844;2022-07-23T02:37:21;97972.16;;;24.73;52.86
55418;BME280;41287;47.554;7.844;2022-07-23T02:39:46;97973.31;;;24.72;52.85
55418;BME280;41287;47.554;7.844;2022-07-23T02:42:13;97981.53;;;24.72;52.96
55418;BME280;41287;47.554;7.844;2022-07-23T02:44:39;97976.06;;;24.72;52.76
55418;BME280;41287;47.554;7.844;2022-07-23T02:47:05;97978.81;;;24.72;52.90
55418;BME280;41287;47.554;7.844;2022-07-23T02:49:30;97982.34;;;24.72;52.90
55418;BME280;41287;47.554;7.844;2022-07-23T02:51:55;97973.31;;;24.72;52.76
55418;BME280;41287;47.554;7.844;2022-07-23T02:54:21;97970.59;;;24.72;52.67
55418;BME280;41287;47.554;7.844;2022-07-23T02:56:46;97962.38;;;24.72;52.89
55418;BME280;41287;47.554;7.844;2022-07-23T02:59:13;97964.31;;;24.71;52.67
55418;BME280;41287;47.554;7.844;2022-07-23T03:01:40;97983.50;;;24.71;52.94
55418;BME280;41287;47.554;7.844;2022-07-23T03:04:05;98025.38;;;24.72;52.97
55418;BME280;41287;47.554;7.844;2022-07-23T03:06:31;98069.22;;;24.72;52.89
55418;BME280;41287;47.554;7.844;2022-07-23T03:08:56;98115.81;;;24.72;52.99
55418;BME280;41287;47.554;7.844;2022-07-23T03:11:21;98122.09;;;24.72;52.90
55418;BME280;41287;47.554;7.844;2022-07-23T03:13:47;98098.22;;;24.73;52.76
55418;BME280;41287;47.554;7.844;2022-07-23T03:16:12;98102.91;;;24.72;53.00
55418;BME280;41287;47.554;7.844;2022-07-23T03:18:38;98091.94;;;24.72;52.93
55418;BME280;41287;47.554;7.844;2022-07-23T03:21:05;98053.59;;;24.72;52.72
55418;BME280;41287;47.554;7.844;2022-07-23T03:23:31;98023.44;;;24.72;52.90
55418;BME280;41287;47.554;7.844;2022-07-23T03:25:58;98016.38;;;24.71;52.92
55418;BME280;41287;47.554;7.844;2022-07-23T03:28:23;98023.44;;;24.72;52.93
55418;BME280;41287;47.554;7.844;2022-07-23T03:30:49;98034.41;;;24.72;52.90
55418;BME280;41287;47.554;7.844;2022-07-23T03:33:16;98046.16;;;24.73;52.95
55418;BME280;41287;47.554;7.844;2022-07-23T03:35:42;98055.53;;;24.72;53.03
55418;BME280;41287;47.554;7.844;2022-07-23T03:38:07;98070.03;;;24.72;52.88
55418;BME280;41287;47.554;7.844;2022-07-23T03:40:33;98085.69;;;24.72;52.91
55418;BME280;41287;47.554;7.844;2022-07-23T03:42:58;98113.06;;;24.72;52.76
55418;BME280;41287;47.554;7.844;2022-07-23T03:45:23;98128.72;;;24.71;53.05
55418;BME280;41287;47.554;7.844;2022-07-23T03:47:51;98143.22;;;24.72;52.85
55418;BME280;41287;47.554;7.844;2022-07-23T03:50:16;98122.09;;;24.72;52.82
55418;BME280;41287;47.554;7.844;2022-07-23T03:52:42;98099.38;;;24.72;52.84
55418;BME280;41287;47.554;7.844;2022-07-23T03:55:07;98066.50;;;24.72;52.62
55418;BME280;41287;47.554;7.844;2022-07-23T03:57:33;98050.06;;;24.72;52.92
55418;BME280;41287;47.554;7.844;2022-07-23T03:59:59;98045.72;;;24.71;52.79
55418;BME280;41287;47.554;7.844;2022-07-23T04:02:24;98025.38;;;24.72;52.91
55418;BME280;41287;47.554;7.844;2022-07-23T04:04:50;98010.09;;;24.71;52.98
55418;BME280;41287;47.554;7.844;2022-07-23T04:07:15;98005.41;;;24.71;52.96
55418;BME280;41287;47.554;7.844;2022-07-23T04:09:42;98001.88;;;24.71;52.93
55418;BME280;41287;47.554;7.844;2022-07-23T04:12:10;97994.47;;;24.71;52.80
55418;BME280;41287;47.554;7.844;2022-07-23T04:14:38;97992.13;;;24.70;52.97
55418;BME280;41287;47.554;7.844;2022-07-23T04:17:03;97999.94;;;24.71;53.00
55418;BME280;41287;47.554;7.844;2022-07-23T04:19:30;98022.66;;;24.72;53.05
55418;BME280;41287;47.554;7.844;2022-07-23T04:21:56;98033.97;;;24.70;53.04
55418;BME280;41287;47.554;7.844;2022-07-23T04:24:22;98038.31;;;24.71;52.87
55418;BME280;41287;47.554;7.844;2022-07-23T04:26:48;98060.22;;;24.71;52.94
55418;BME280;41287;47.554;7.844;2022-07-23T04:29:15;98071.19;;;24.71;53.08
55418;BME280;41287;47.554;7.844;2022-07-23T04:31:40;98059.06;;;24.72;52.80
55418;BME280;41287;47.554;7.844;2022-07-23T04:34:06;98066.50;;;24.72;53.01
55418;BME280;41287;47.554;7.844;2022-07-23T04:36:31;98068.44;;;24.71;52.97
55418;BME280;41287;47.554;7.844;2022-07-23T04:38:57;98065.69;;;24.71;52.98
55418;BME280;41287;47.554;7.844;2022-07-23T04:41:24;98069.22;;;24.72;53.12
55418;BME280;41287;47.554;7.844;2022-07-23T04:43:49;98070.03;;;24.72;53.04
55418;BME280;41287;47.554;7.844;2022-07-23T04:46:15;98070.03;;;24.72;52.91
55418;BME280;41287;47.554;7.844;2022-07-23T04:48:40;98066.50;;;24.72;52.92
55418;BME280;41287;47.554;7.844;2022-07-23T04:51:07;98071.19;;;24.71;53.06
55418;BME280;41287;47.554;7.844;2022-07-23T04:53:32;98072.75;;;24.72;52.97
55418;BME280;41287;47.554;7.844;2022-07-23T04:55:58;98074.72;;;24.72;53.16
55418;BME280;41287;47.554;7.844;2022-07-23T04:58:23;98062.97;;;24.71;53.13
55418;BME280;41287;47.554;7.844;2022-07-23T05:00:50;98071.19;;;24.71;52.97
55418;BME280;41287;47.554;7.844;2022-07-23T05:03:17;98088.41;;;24.72;53.06
55418;BME280;41287;47.554;7.844;2022-07-23T05:05:42;98076.66;;;24.71;53.08
55418;BME280;41287;47.554;7.844;2022-07-23T05:08:08;98060.63;;;24.70;53.11
55418;BME280;41287;47.554;7.844;2022-07-23T05:10:33;98060.22;;;24.71;53.12
55418;BME280;41287;47.554;7.844;2022-07-23T05:13:00;98056.31;;;24.72;53.10
55418;BME280;41287;47.554;7.844;2022-07-23T05:15:26;98047.31;;;24.72;52.99
55418;BME280;41287;47.554;7.844;2022-07-23T05:17:51;98058.28;;;24.72;53.07
55418;BME280;41287;47.554;7.844;2022-07-23T05:20:16;98066.88;;;24.70;53.11
55418;BME280;41287;47.554;7.844;2022-07-23T05:22:44;98068.44;;;24.71;53.13
55418;BME280;41287;47.554;7.844;2022-07-23T05:25:09;98077.44;;;24.72;52.87
55418;BME280;41287;47.554;7.844;2022-07-23T05:27:35;98075.09;;;24.70;53.15
55418;BME280;41287;47.554;7.844;2022-07-23T05:30:00;98079.41;;;24.71;53.05
55418;BME280;41287;47.554;7.844;2022-07-23T05:32:26;98104.06;;;24.71;53.19
55418;BME280;41287;47.554;7.844;2022-07-23T05:34:53;98102.13;;;24.72;53.19
55418;BME280;41287;47.554;7.844;2022-07-23T05:37:20;98099.38;;;24.72;53.06
55418;BME280;41287;47.554;7.844;2022-07-23T05:39:45;98097.78;;;24.71;53.11
55418;BME280;41287;47.554;7.844;2022-07-23T05:42:11;98107.19;;;24.70;53.09
55418;BME280;41287;47.554;7.844;2022-07-23T05:44:36;98116.59;;;24.69;54.02
55418;BME280;41287;47.554;7.844;2022-07-23T05:47:03;98123.22;;;24.68;54.93
55418;BME280;41287;47.554;7.844;2022-07-23T05:49:29;98118.91;;;24.67;55.36
55418;BME280;41287;47.554;7.844;2022-07-23T05:51:54;98122.78;;;24.66;55.96
55418;BME280;41287;47.554;7.844;2022-07-23T05:54:19;98120.41;;;24.64;56.23
55418;BME280;41287;47.554;7.844;2022-07-23T05:56:45;98109.47;;;24.64;56.81
55418;BME280;41287;47.554;7.844;2022-07-23T05:59:10;98108.66;;;24.64;57.03
55418;BME280;41287;47.554;7.844;2022-07-23T06:01:38;98101.63;;;24.63;57.05
55418;BME280;41287;47.554;7.844;2022-07-23T06:04:03;98109.84;;;24.63;56.64
55418;BME280;41287;47.554;7.844;2022-07-23T06:06:29;98122.00;;;24.65;56.64
55418;BME280;41287;47.554;7.844;2022-07-23T06:08:56;98117.31;;;24.66;56.38
55418;BME280;41287;47.554;7.844;2022-07-23T06:11:21;98121.28;;;24.72;56.28
55418;BME280;41287;47.554;7.844;2022-07-23T06:13:47;98122.50;;;24.74;55.94
55418;BME280;41287;47.554;7.844;2022-07-23T06:16:12;98128.81;;;24.78;56.04
55418;BME280;41287;47.554;7.844;2022-07-23T06:18:38;98116.31;;;24.81;56.62
55418;BME280;41287;47.554;7.844;2022-07-23T06:21:03;98116.34;;;24.85;57.09
55418;BME280;41287;47.554;7.844;2022-07-23T06:23:29;98123.06;;;24.87;57.75
55418;BME280;41287;47.554;7.844;2022-07-23T06:25:54;98127.03;;;24.90;58.44
55418;BME280;41287;47.554;7.844;2022-07-23T06:28:19;98126.63;;;24.91;59.52
55418;BME280;41287;47.554;7.844;2022-07-23T06:30:45;98133.34;;;24.94;60.02
55418;BME280;41287;47.554;7.844;2022-07-23T06:33:10;98136.50;;;24.96;60.27
55418;BME280;41287;47.554;7.844;2022-07-23T06:35:36;98144.75;;;24.99;61.48
55418;BME280;41287;47.554;7.844;2022-07-23T06:38:02;98159.31;;;25.03;62.37
55418;BME280;41287;47.554;7.844;2022-07-23T06:40:27;98155.00;;;25.06;62.86
55418;BME280;41287;47.554;7.844;2022-07-23T06:42:52;98148.38;;;25.07;63.08
55418;BME280;41287;47.554;7.844;2022-07-23T06:45:18;98164.09;;;25.10;63.25
55418;BME280;41287;47.554;7.844;2022-07-23T06:47:43;98166.44;;;25.11;63.85
55418;BME280;41287;47.554;7.844;2022-07-23T06:50:09;98182.16;;;25.14;64.47
55418;BME280;41287;47.554;7.844;2022-07-23T06:52:35;98182.56;;;25.16;64.66
55418;BME280;41287;47.554;7.844;2022-07-23T06:55:01;98193.94;;;25.18;65.16
55418;BME280;41287;47.554;7.844;2022-07-23T06:57:26;98194.34;;;25.21;65.53
55418;BME280;41287;47.554;7.844;2022-07-23T06:59:52;98194.78;;;25.23;65.25
55418;BME280;41287;47.554;7.844;2022-07-23T07:02:19;98205.31;;;25.21;64.17
55418;BME280;41287;47.554;7.844;2022-07-23T07:04:44;98190.41;;;25.18;63.58
55418;BME280;41287;47.554;7.844;2022-07-23T07:07:10;98187.25;;;25.16;63.12
55418;BME280;41287;47.554;7.844;2022-07-23T07:09:37;98181.72;;;25.12;62.84
55418;BME280;41287;47.554;7.844;2022-07-23T07:12:03;98180.94;;;25.12;62.69
55418;BME280;41287;47.554;7.844;2022-07-23T07:14:30;98173.91;;;25.11;62.54
55418;BME280;41287;47.554;7.844;2022-07-23T07:16:56;98174.25;;;25.09;62.41
55418;BME280;41287;47.554;7.844;2022-07-23T07:19:21;98175.41;;;25.08;62.08
55418;BME280;41287;47.554;7.844;2022-07-23T07:21:46;98179.31;;;25.07;61.65
55418;BME280;41287;47.554;7.844;2022-07-23T07:24:12;98187.91;;;25.06;61.75
55418;BME280;41287;47.554;7.844;2022-07-23T07:26:37;98184.38;;;25.05;61.42
55418;BME280;41287;47.554;7.844;2022-07-23T07:29:04;98174.97;;;25.03;61.18
55418;BME280;41287;47.554;7.844;2022-07-23T07:31:30;98182.03;;;25.04;61.03
55418;BME280;41287;47.554;7.844;2022-07-23T07:33:55;98193.00;;;25.04;61.20
55418;BME280;41287;47.554;7.844;2022-07-23T07:36:22;98194.16;;;25.03;60.86
55418;BME280;41287;47.554;7.844;2022-07-23T07:38:49;98194.53;;;25.01;60.73
55418;BME280;41287;47.554;7.844;2022-07-23T07:41:17;98193.72;;;25.01;60.88
55418;BME280;41287;47.554;7.844;2022-07-23T07:43:42;98189.41;;;25.00;60.55
55418;BME280;41287;47.554;7.844;2022-07-23T07:46:07;98190.19;;;25.00;60.65
55418;BME280;41287;47.554;7.844;2022-07-23T07:48:37;98196.84;;;24.99;60.51
55418;BME280;41287;47.554;7.844;2022-07-23T07:51:04;98198.44;;;25.00;60.38
55418;BME280;41287;47.554;7.844;2022-07-23T07:53:29;98207.81;;;24.99;60.38
55418;BME280;41287;47.554;7.844;2022-07-23T07:55:54;98207.81;;;24.99;60.37
55418;BME280;41287;47.554;7.844;2022-07-23T07:58:20;98207.03;;;24.99;60.24
55418;BME280;41287;47.554;7.844;2022-07-23T08:00:45;98196.06;;;24.99;60.37
55418;BME280;41287;47.554;7.844;2022-07-23T08:03:11;98196.06;;;24.99;60.34
55418;BME280;41287;47.554;7.844;2022-07-23T08:05:36;98191.34;;;24.99;60.04
55418;BME280;41287;47.554;7.844;2022-07-23T08:08:02;98190.56;;;24.99;59.50
55418;BME280;41287;47.554;7.844;2022-07-23T08:10:28;98190.19;;;25.00;59.54
55418;BME280;41287;47.554;7.844;2022-07-23T08:12:55;98186.66;;;25.00;59.15
55418;BME280;41287;47.554;7.844;2022-07-23T08:15:22;98187.47;;;25.00;59.01
55418;BME280;41287;47.554;7.844;2022-07-23T08:17:48;98191.78;;;25.01;58.88
55418;BME280;41287;47.554;7.844;2022-07-23T08:20:16;98192.16;;;25.00;58.78
55418;BME280;41287;47.554;7.844;2022-07-23T08:22:51;98192.94;;;25.00;58.56
55418;BME280;41287;47.554;7.844;2022-07-23T08:25:23;98193.72;;;25.01;58.47
55418;BME280;41287;47.554;7.844;2022-07-23T08:27:51;98198.06;;;25.02;58.83
55418;BME280;41287;47.554;7.844;2022-07-23T08:30:18;98187.88;;;25.02;58.44
55418;BME280;41287;47.554;7.844;2022-07-23T08:33:01;98185.50;;;25.01;58.61
55418;BME280;41287;47.554;7.844;2022-07-23T08:35:35;98197.69;;;25.03;58.68
55418;BME280;41287;47.554;7.844;2022-07-23T08:38:04;98207.47;;;25.04;58.50
55418;BME280;41287;47.554;7.844;2022-07-23T08:40:36;98202.00;;;25.04;58.32
55418;BME280;41287;47.554;7.844;2022-07-23T08:43:07;98204.34;;;25.02;58.27
55418;BME280;41287;47.554;7.844;2022-07-23T08:45:36;98205.53;;;25.05;58.52
55418;BME280;41287;47.554;7.844;2022-07-23T08:48:03;98208.25;;;25.05;58.47
55418;BME280;41287;47.554;7.844;2022-07-23T08:50:30;98214.53;;;25.05;58.38
55418;BME280;41287;47.554;7.844;2022-07-23T08:52:58;98213.38;;;25.06;58.32
55418;BME280;41287;47.554;7.844;2022-07-23T08:55:24;98208.25;;;25.05;58.21
55418;BME280;41287;47.554;7.844;2022-07-23T08:57:51;98207.47;;;25.04;58.29
55418;BME280;41287;47.554;7.844;2022-07-23T09:00:18;98212.97;;;25.04;58.26
55418;BME280;41287;47.554;7.844;2022-07-23T09:02:45;98207.88;;;25.03;58.10
55418;BME280;41287;47.554;7.844;2022-07-23T09:05:13;98212.56;;;25.02;58.10
55418;BME280;41287;47.554;7.844;2022-07-23T09:10:29;98203.53;;;25.02;57.99
55418;BME280;41287;47.554;7.844;2022-07-23T09:12:56;98196.47;;;25.01;57.94
55418;BME280;41287;47.554;7.844;2022-07-23T09:15:21;98195.69;;;25.00;57.93
55418;BME280;41287;47.554;7.844;2022-07-23T09:17:47;98194.91;;;25.00;57.89
55418;BME280;41287;47.554;7.844;2022-07-23T09:20:16;98195.69;;;25.00;58.08
55418;BME280;41287;47.554;7.844;2022-07-23T09:22:47;98190.56;;;24.99;57.87
55418;BME280;41287;47.554;7.844;2022-07-23T09:25:17;98190.56;;;24.99;58.06
55418;BME280;41287;47.554;7.844;2022-07-23T09:30:14;98191.34;;;24.99;57.91
55418;BME280;41287;47.554;7.844;2022-07-23T09:32:40;98192.53;;;24.98;57.92
55418;BME280;41287;47.554;7.844;2022-07-23T09:35:06;98191.34;;;24.99;58.23
55418;BME280;41287;47.554;7.844;2022-07-23T09:37:34;98189.41;;;25.00;58.21
55418;BME280;41287;47.554;7.844;2022-07-23T09:40:08;98192.94;;;25.00;58.04
55418;BME280;41287;47.554;7.844;2022-07-23T09:42:34;98191.78;;;25.01;57.80
55418;BME280;41287;47.554;7.844;2022-07-23T09:45:00;98198.06;;;25.02;57.97
55418;BME280;41287;47.554;7.844;2022-07-23T09:47:28;98189.03;;;25.01;57.80
55418;BME280;41287;47.554;7.844;2022-07-23T09:50:07;98192.56;;;25.02;57.66
55418;BME280;41287;47.554;7.844;2022-07-23T09:52:49;98197.28;;;25.01;57.56
55418;BME280;41287;47.554;7.844;2022-07-23T09:55:17;98209.81;;;25.02;57.62
55418;BME280;41287;47.554;7.844;2022-07-23T09:57:44;98204.69;;;25.01;57.64
55418;BME280;41287;47.554;7.844;2022-07-23T10:00:11;98209.03;;;25.02;57.63
55418;BME280;41287;47.554;7.844;2022-07-23T10:02:37;98209.81;;;25.02;57.71
55418;BME280;41287;47.554;7.844;2022-07-23T10:05:06;98208.22;;;25.01;57.51
55418;BME280;41287;47.554;7.844;2022-07-23T10:07:35;98207.88;;;25.03;57.63
55418;BME280;41287;47.554;7.844;2022-07-23T10:10:03;98212.97;;;25.04;57.64
55418;BME280;41287;47.554;7.844;2022-07-23T10:12:29;98217.69;;;25.04;57.49
55418;BME280;41287;47.554;7.844;2022-07-23T10:15:05;98215.31;;;25.02;57.71
55418;BME280;41287;47.554;7.844;2022-07-23T10:17:35;98206.72;;;25.04;57.46
55418;BME280;41287;47.554;7.844;2022-07-23T10:20:00;98211.78;;;25.02;57.30
55418;BME280;41287;47.554;7.844;2022-07-23T10:22:29;98215.31;;;25.02;57.28
55418;BME280;41287;47.554;7.844;2022-07-23T10:28:41;98214.50;;;25.02;57.09
55418;BME280;41287;47.554;7.844;2022-07-23T10:38:53;98217.25;;;25.02;57.25
55418;BME280;41287;47.554;7.844;2022-07-23T10:41:39;98225.47;;;25.02;57.09
55418;BME280;41287;47.554;7.844;2022-07-23T10:44:06;98224.31;;;25.03;57.15
55418;BME280;41287;47.554;7.844;2022-07-23T10:46:33;98212.56;;;25.02;57.19
55418;BME280;41287;47.554;7.844;2022-07-23T10:49:35;98212.13;;;25.00;57.13
55418;BME280;41287;47.554;7.844;2022-07-23T10:54:49;98216.47;;;25.01;57.04
55418;BME280;41287;47.554;7.844;2022-07-23T10:57:17;98202.75;;;25.01;56.99
55418;BME280;41287;47.554;7.844;2022-07-23T11:02:33;98198.06;;;25.02;56.88
55418;BME280;41287;47.554;7.844;2022-07-23T11:05:00;98205.50;;;25.01;57.00
55418;BME280;41287;47.554;7.844;2022-07-23T11:07:26;98193.38;;;25.02;56.97
55418;BME280;41287;47.554;7.844;2022-07-23T11:09:51;98200.00;;;25.01;56.92
55418;BME280;41287;47.554;7.844;2022-07-23T11:15:12;98202.75;;;25.01;57.07
55418;BME280;41287;47.554;7.844;2022-07-23T11:25:09;98209.44;;;25.04;56.95
55418;BME280;41287;47.554;7.844;2022-07-23T11:27:44;98206.72;;;25.04;57.04
55418;BME280;41287;47.554;7.844;2022-07-23T11:35:49;98195.34;;;25.05;57.57
55418;BME280;41287;47.554;7.844;2022-07-23T11:38:21;98194.97;;;25.07;57.60
55418;BME280;41287;47.554;7.844;2022-07-23T11:40:49;98202.84;;;25.08;58.16
55418;BME280;41287;47.554;7.844;2022-07-23T11:43:17;98201.69;;;25.09;58.18
55418;BME280;41287;47.554;7.844;2022-07-23T11:45:45;98196.19;;;25.09;58.15
55418;BME280;41287;47.554;7.844;2022-07-23T11:48:18;98193.47;;;25.09;57.86
55418;BME280;41287;47.554;7.844;2022-07-23T11:50:45;98197.34;;;25.08;57.72
55418;BME280;41287;47.554;7.844;2022-07-23T11:53:41;98201.25;;;25.07;57.66
55418;BME280;41287;47.554;7.844;2022-07-23T11:56:12;98189.91;;;25.09;57.51
55418;BME280;41287;47.554;7.844;2022-07-23T11:58:38;98194.63;;;25.08;57.53
55418;BME280;41287;47.554;7.844;2022-07-23T12:01:04;98183.66;;;25.08;57.63
55418;BME280;41287;47.554;7.844;2022-07-23T12:03:30;98187.97;;;25.09;57.68
55418;BME280;41287;47.554;7.844;2022-07-23T12:05:57;98187.97;;;25.09;57.54
55418;BME280;41287;47.554;7.844;2022-07-23T12:08:23;98190.34;;;25.11;58.10
55418;BME280;41287;47.554;7.844;2022-07-23T12:10:49;98191.91;;;25.12;58.34
55418;BME280;41287;47.554;7.844;2022-07-23T12:13:19;98181.31;;;25.10;58.54
55418;BME280;41287;47.554;7.844;2022-07-23T12:15:46;98180.13;;;25.11;58.39
55418;BME280;41287;47.554;7.844;2022-07-23T12:18:16;98180.13;;;25.11;58.63
55418;BME280;41287;47.554;7.844;2022-07-23T12:20:48;98174.66;;;25.11;58.70
55418;BME280;41287;47.554;7.844;2022-07-23T12:23:16;98179.38;;;25.11;58.41
55418;BME280;41287;47.554;7.844;2022-07-23T12:25:43;98180.13;;;25.11;58.28
55418;BME280;41287;47.554;7.844;2022-07-23T12:28:10;98174.66;;;25.11;58.21
55418;BME280;41287;47.554;7.844;2022-07-23T12:30:53;98179.38;;;25.11;58.17
55418;BME280;41287;47.554;7.844;2022-07-23T12:35:57;98168.41;;;25.11;57.76
55418;BME280;41287;47.554;7.844;2022-07-23T12:38:24;98170.72;;;25.09;57.72
55418;BME280;41287;47.554;7.844;2022-07-23T12:40:51;98174.63;;;25.08;57.49
55418;BME280;41287;47.554;7.844;2022-07-23T12:43:26;98175.00;;;25.06;57.33
55418;BME280;41287;47.554;7.844;2022-07-23T12:48:23;98174.56;;;25.04;57.38
55418;BME280;41287;47.554;7.844;2022-07-23T12:50:51;98169.09;;;25.04;57.30
55418;BME280;41287;47.554;7.844;2022-07-23T12:55:57;98154.97;;;25.02;57.47
55418;BME280;41287;47.554;7.844;2022-07-23T12:58:25;98166.31;;;25.01;57.40
55418;BME280;41287;47.554;7.844;2022-07-23T13:00:54;98163.56;;;25.01;57.52
55418;BME280;41287;47.554;7.844;2022-07-23T13:03:26;98162.78;;;25.00;57.45
55418;BME280;41287;47.554;7.844;2022-07-23T13:05:52;98151.81;;;25.00;57.61
55418;BME280;41287;47.554;7.844;2022-07-23T13:08:18;98152.19;;;24.99;57.48
55418;BME280;41287;47.554;7.844;2022-07-23T13:10:43;98143.97;;;24.99;57.22
55418;BME280;41287;47.554;7.844;2022-07-23T13:13:12;98149.44;;;24.99;57.34
55418;BME280;41287;47.554;7.844;2022-07-23T13:15:38;98142.38;;;24.98;57.34
55418;BME280;41287;47.554;7.844;2022-07-23T13:18:03;98147.88;;;24.98;57.34
55418;BME280;41287;47.554;7.844;2022-07-23T13:20:29;98149.06;;;24.97;57.35
55418;BME280;41287;47.554;7.844;2022-07-23T13:22:57;98140.81;;;24.97;57.36
55418;BME280;41287;47.554;7.844;2022-07-23T13:25:22;98141.63;;;24.97;57.50
55418;BME280;41287;47.554;7.844;2022-07-23T13:27:47;98144.72;;;24.96;57.34
55418;BME280;41287;47.554;7.844;2022-07-23T13:30:13;98142.78;;;24.96;57.39
55418;BME280;41287;47.554;7.844;2022-07-23T13:32:38;98143.94;;;24.95;57.43
55418;BME280;41287;47.554;7.844;2022-07-23T13:35:04;98146.69;;;24.95;57.35
55418;BME280;41287;47.554;7.844;2022-07-23T13:37:29;98149.41;;;24.95;57.23
55418;BME280;41287;47.554;7.844;2022-07-23T13:39:55;98143.94;;;24.95;57.48
55418;BME280;41287;47.554;7.844;2022-07-23T13:42:20;98150.56;;;24.94;57.23
55418;BME280;41287;47.554;7.844;2022-07-23T13:44:45;98140.41;;;24.95;57.33